SBI6262 ULLI-UUEE
Flight info
| Callsign | SBI6262 |
|---|---|
| Flight time | 0h 58m |
| Altitude | 29000 |
| Route | SUGIN1C SUGIN T873 NIRGI T73 NAMIN NAMIN3E |
| Aircraft | A20N/M-SDE2E3FGHIRWXY/LB1 |
Departure
| Time | 2026-05-07 09:00 |
|---|---|
| Airport | Pulkovo Airport (ULLI) |
Arrival
| Time | 2026-05-07 09:58 |
|---|---|
| Airport | Sheremetyevo International Airport (UUEE) |
| Time | Latitude | Longitude | Altitude | Speed | Heading |
|---|---|---|---|---|---|
| 2026-05-07 08:39 | 59.79890 | 30.26345 | 86 ft | 0 kts | 286° |
| 2026-05-07 08:52 | 59.79897 | 30.26299 | 88 ft | 9 kts | 286° |
| 2026-05-07 08:52 | 59.79883 | 30.26192 | 90 ft | 7 kts | 219° |
| 2026-05-07 08:53 | 59.79828 | 30.26164 | 88 ft | 14 kts | 194° |
| 2026-05-07 08:53 | 59.79701 | 30.26091 | 90 ft | 23 kts | 197° |
| 2026-05-07 08:53 | 59.79549 | 30.25961 | 89 ft | 16 kts | 219° |
| 2026-05-07 08:53 | 59.79556 | 30.25912 | 88 ft | 10 kts | 304° |
| 2026-05-07 08:54 | 59.79580 | 30.25806 | 91 ft | 13 kts | 285° |
| 2026-05-07 08:54 | 59.79607 | 30.25604 | 88 ft | 17 kts | 285° |
| 2026-05-07 08:54 | 59.79641 | 30.25387 | 92 ft | 0 kts | 288° |
| 2026-05-07 08:54 | 59.79642 | 30.25379 | 92 ft | 3 kts | 287° |
| 2026-05-07 08:55 | 59.79653 | 30.25308 | 90 ft | 8 kts | 287° |
| 2026-05-07 08:55 | 59.79674 | 30.25166 | 92 ft | 13 kts | 285° |
| 2026-05-07 08:55 | 59.79703 | 30.24960 | 90 ft | 17 kts | 287° |
| 2026-05-07 08:55 | 59.79741 | 30.24702 | 88 ft | 22 kts | 286° |
| 2026-05-07 08:56 | 59.79789 | 30.24384 | 89 ft | 26 kts | 286° |
| 2026-05-07 08:56 | 59.79843 | 30.24019 | 89 ft | 30 kts | 285° |
| 2026-05-07 08:56 | 59.79904 | 30.23601 | 90 ft | 33 kts | 289° |
| 2026-05-07 08:56 | 59.79973 | 30.23148 | 87 ft | 36 kts | 286° |
| 2026-05-07 08:57 | 59.80045 | 30.22662 | 89 ft | 35 kts | 287° |
| 2026-05-07 08:57 | 59.80109 | 30.22227 | 85 ft | 26 kts | 284° |
| 2026-05-07 08:57 | 59.80086 | 30.22028 | 86 ft | 0 kts | 229° |
| 2026-05-07 08:59 | 59.80070 | 30.21992 | 87 ft | 7 kts | 228° |
| 2026-05-07 08:59 | 59.80017 | 30.21919 | 86 ft | 13 kts | 189° |
| 2026-05-07 08:59 | 59.79944 | 30.22151 | 87 ft | 52 kts | 107° |
| 2026-05-07 08:59 | 59.79743 | 30.23506 | 95 ft | 152 kts | 106° |
| 2026-05-07 09:00 | 59.79410 | 30.25764 | 753 ft | 182 kts | 105° |
| 2026-05-07 09:00 | 59.79040 | 30.28310 | 1659 ft | 193 kts | 104° |
| 2026-05-07 09:00 | 59.78642 | 30.31004 | 1969 ft | 224 kts | 105° |
| 2026-05-07 09:00 | 59.78182 | 30.34090 | 2821 ft | 243 kts | 105° |
| 2026-05-07 09:01 | 59.77694 | 30.37333 | 3597 ft | 241 kts | 106° |
| 2026-05-07 09:01 | 59.77220 | 30.40475 | 3974 ft | 242 kts | 106° |
| 2026-05-07 09:01 | 59.76737 | 30.43685 | 4052 ft | 243 kts | 106° |
| 2026-05-07 09:01 | 59.76252 | 30.46896 | 4048 ft | 244 kts | 105° |
| 2026-05-07 09:02 | 59.75752 | 30.50205 | 4525 ft | 250 kts | 105° |
| 2026-05-07 09:02 | 59.75249 | 30.53527 | 5737 ft | 251 kts | 105° |
| 2026-05-07 09:02 | 59.74766 | 30.56857 | 7064 ft | 253 kts | 105° |
| 2026-05-07 09:02 | 59.74307 | 30.60231 | 8191 ft | 261 kts | 106° |
| 2026-05-07 09:03 | 59.73832 | 30.63775 | 9252 ft | 272 kts | 107° |
| 2026-05-07 09:03 | 59.73323 | 30.67551 | 9975 ft | 299 kts | 107° |
| 2026-05-07 09:03 | 59.72769 | 30.71655 | 10769 ft | 315 kts | 108° |
| 2026-05-07 09:03 | 59.72195 | 30.75924 | 11827 ft | 324 kts | 108° |
| 2026-05-07 09:04 | 59.71603 | 30.80307 | 12878 ft | 335 kts | 109° |
| 2026-05-07 09:04 | 59.70991 | 30.84827 | 13902 ft | 345 kts | 110° |
| 2026-05-07 09:04 | 59.70360 | 30.89475 | 14854 ft | 353 kts | 109° |
| 2026-05-07 09:04 | 59.69715 | 30.94210 | 15830 ft | 360 kts | 109° |
| 2026-05-07 09:05 | 59.69056 | 30.99035 | 16810 ft | 366 kts | 109° |
| 2026-05-07 09:05 | 59.68385 | 31.03936 | 17784 ft | 372 kts | 109° |
| 2026-05-07 09:05 | 59.67702 | 31.08913 | 18688 ft | 378 kts | 109° |
| 2026-05-07 09:05 | 59.67005 | 31.13971 | 19492 ft | 385 kts | 109° |
| 2026-05-07 09:06 | 59.66293 | 31.19118 | 20308 ft | 391 kts | 110° |
| 2026-05-07 09:06 | 59.65566 | 31.24351 | 21121 ft | 397 kts | 110° |
| 2026-05-07 09:06 | 59.64827 | 31.29656 | 21899 ft | 403 kts | 110° |
| 2026-05-07 09:06 | 59.64073 | 31.35051 | 22641 ft | 410 kts | 110° |
| 2026-05-07 09:07 | 59.63307 | 31.40515 | 23397 ft | 416 kts | 110° |
| 2026-05-07 09:07 | 59.62822 | 31.43965 | 23830 ft | 419 kts | 111° |
| 2026-05-07 09:07 | 59.62050 | 31.49449 | 24553 ft | 420 kts | 110° |
| 2026-05-07 09:07 | 59.61266 | 31.55006 | 25185 ft | 424 kts | 110° |
| 2026-05-07 09:08 | 59.60458 | 31.60684 | 25585 ft | 435 kts | 110° |
| 2026-05-07 09:08 | 59.59623 | 31.66524 | 25835 ft | 449 kts | 110° |
| 2026-05-07 09:08 | 59.58760 | 31.72541 | 26080 ft | 462 kts | 110° |
| 2026-05-07 09:08 | 59.57874 | 31.78714 | 26366 ft | 473 kts | 110° |
| 2026-05-07 09:09 | 59.56967 | 31.85016 | 26806 ft | 480 kts | 110° |
| 2026-05-07 09:09 | 59.56047 | 31.91385 | 27302 ft | 485 kts | 110° |
| 2026-05-07 09:09 | 59.55116 | 31.97812 | 27802 ft | 490 kts | 110° |
| 2026-05-07 09:09 | 59.54156 | 32.04271 | 28364 ft | 491 kts | 113° |
| 2026-05-07 09:10 | 59.52816 | 32.10411 | 28875 ft | 483 kts | 126° |
| 2026-05-07 09:10 | 59.50885 | 32.15718 | 28998 ft | 473 kts | 136° |
| 2026-05-07 09:10 | 59.46368 | 32.25249 | 29027 ft | 482 kts | 139° |
| 2026-05-07 09:11 | 59.41550 | 32.34408 | 29025 ft | 482 kts | 144° |
| 2026-05-07 09:11 | 59.36666 | 32.43437 | 29020 ft | 483 kts | 143° |
| 2026-05-07 09:12 | 59.31823 | 32.52607 | 29028 ft | 487 kts | 144° |
| 2026-05-07 09:12 | 59.26914 | 32.62011 | 29010 ft | 499 kts | 143° |
| 2026-05-07 09:13 | 59.21981 | 32.71509 | 29020 ft | 502 kts | 143° |
| 2026-05-07 09:13 | 59.16968 | 32.81109 | 29016 ft | 502 kts | 143° |
| 2026-05-07 09:14 | 59.11955 | 32.90645 | 29008 ft | 502 kts | 143° |
| 2026-05-07 09:14 | 59.06948 | 33.00120 | 29018 ft | 502 kts | 144° |
| 2026-05-07 09:15 | 59.01940 | 33.09556 | 29016 ft | 502 kts | 144° |
| 2026-05-07 09:15 | 58.96955 | 33.18912 | 29010 ft | 502 kts | 144° |
| 2026-05-07 09:16 | 58.91895 | 33.28369 | 29013 ft | 502 kts | 144° |
| 2026-05-07 09:16 | 58.86900 | 33.37662 | 29002 ft | 502 kts | 144° |
| 2026-05-07 09:17 | 58.81860 | 33.46998 | 28989 ft | 502 kts | 144° |
| 2026-05-07 09:17 | 58.76807 | 33.56317 | 29000 ft | 503 kts | 144° |
| 2026-05-07 09:18 | 58.71744 | 33.65620 | 28999 ft | 503 kts | 144° |
| 2026-05-07 09:18 | 58.66677 | 33.74891 | 28998 ft | 503 kts | 144° |
| 2026-05-07 09:19 | 58.61599 | 33.84142 | 28954 ft | 503 kts | 144° |
| 2026-05-07 09:19 | 58.56524 | 33.93351 | 28991 ft | 500 kts | 144° |
| 2026-05-07 09:20 | 58.51463 | 34.02495 | 28980 ft | 500 kts | 144° |
| 2026-05-07 09:20 | 58.46400 | 34.11601 | 28994 ft | 500 kts | 144° |
| 2026-05-07 09:21 | 58.41331 | 34.20681 | 28989 ft | 500 kts | 144° |
| 2026-05-07 09:21 | 58.36252 | 34.29741 | 28975 ft | 499 kts | 143° |
| 2026-05-07 09:22 | 58.31189 | 34.38740 | 28971 ft | 497 kts | 144° |
| 2026-05-07 09:22 | 58.26127 | 34.47697 | 28969 ft | 497 kts | 144° |
| 2026-05-07 09:23 | 58.21058 | 34.56627 | 28968 ft | 497 kts | 144° |
| 2026-05-07 09:23 | 58.15865 | 34.65210 | 28963 ft | 494 kts | 147° |
| 2026-05-07 09:24 | 58.10586 | 34.73485 | 28958 ft | 491 kts | 147° |
| 2026-05-07 09:24 | 58.05322 | 34.81694 | 28961 ft | 490 kts | 147° |
| 2026-05-07 09:25 | 58.00068 | 34.89912 | 28946 ft | 490 kts | 147° |
| 2026-05-07 09:25 | 57.94820 | 34.98121 | 28946 ft | 490 kts | 147° |
| 2026-05-07 09:26 | 57.89569 | 35.06307 | 28933 ft | 490 kts | 146° |
| 2026-05-07 09:26 | 57.84337 | 35.14436 | 28944 ft | 489 kts | 146° |
| 2026-05-07 09:27 | 57.79090 | 35.22555 | 28944 ft | 489 kts | 146° |
| 2026-05-07 09:28 | 57.71215 | 35.34676 | 28933 ft | 489 kts | 146° |
| 2026-05-07 09:28 | 57.65954 | 35.42734 | 28920 ft | 488 kts | 146° |
| 2026-05-07 09:29 | 57.60739 | 35.50693 | 28927 ft | 487 kts | 146° |
| 2026-05-07 09:29 | 57.55494 | 35.58688 | 28926 ft | 487 kts | 146° |
| 2026-05-07 09:30 | 57.50246 | 35.66674 | 28922 ft | 487 kts | 146° |
| 2026-05-07 09:30 | 57.45003 | 35.74622 | 28923 ft | 487 kts | 146° |
| 2026-05-07 09:31 | 57.39744 | 35.82560 | 28918 ft | 487 kts | 146° |
| 2026-05-07 09:31 | 57.34479 | 35.90476 | 28916 ft | 487 kts | 146° |
| 2026-05-07 09:32 | 57.29210 | 35.98371 | 28917 ft | 487 kts | 146° |
| 2026-05-07 09:32 | 57.24830 | 36.04909 | 28894 ft | 487 kts | 146° |
| 2026-05-07 09:33 | 57.19566 | 36.12742 | 28891 ft | 485 kts | 146° |
| 2026-05-07 09:33 | 57.14321 | 36.20519 | 28420 ft | 479 kts | 146° |
| 2026-05-07 09:33 | 57.11734 | 36.24350 | 27568 ft | 475 kts | 146° |
| 2026-05-07 09:34 | 57.09166 | 36.28142 | 26771 ft | 471 kts | 146° |
| 2026-05-07 09:34 | 57.06624 | 36.31887 | 26031 ft | 466 kts | 146° |
| 2026-05-07 09:34 | 57.04108 | 36.35587 | 25302 ft | 461 kts | 146° |
| 2026-05-07 09:34 | 57.01609 | 36.39234 | 24594 ft | 456 kts | 147° |
| 2026-05-07 09:35 | 56.99129 | 36.42826 | 23905 ft | 452 kts | 147° |
| 2026-05-07 09:35 | 56.96670 | 36.46370 | 23175 ft | 447 kts | 147° |
| 2026-05-07 09:35 | 56.94234 | 36.49871 | 22382 ft | 442 kts | 146° |
| 2026-05-07 09:35 | 56.91830 | 36.53324 | 21653 ft | 437 kts | 146° |
| 2026-05-07 09:36 | 56.89449 | 36.56740 | 20951 ft | 433 kts | 146° |
| 2026-05-07 09:36 | 56.87087 | 36.60144 | 20327 ft | 431 kts | 146° |
| 2026-05-07 09:36 | 56.84738 | 36.63537 | 19708 ft | 429 kts | 146° |
| 2026-05-07 09:36 | 56.82404 | 36.66906 | 19103 ft | 427 kts | 146° |
| 2026-05-07 09:37 | 56.80083 | 36.70253 | 18513 ft | 424 kts | 146° |
| 2026-05-07 09:37 | 56.77776 | 36.73575 | 17888 ft | 421 kts | 146° |
| 2026-05-07 09:37 | 56.75492 | 36.76859 | 17219 ft | 415 kts | 146° |
| 2026-05-07 09:37 | 56.73317 | 36.80249 | 16564 ft | 412 kts | 138° |
| 2026-05-07 09:38 | 56.71725 | 36.84589 | 15899 ft | 415 kts | 117° |
| 2026-05-07 09:38 | 56.70969 | 36.89633 | 15326 ft | 413 kts | 102° |
| 2026-05-07 09:38 | 56.70580 | 36.94749 | 14974 ft | 401 kts | 99° |
| 2026-05-07 09:38 | 56.70233 | 36.99659 | 14895 ft | 381 kts | 100° |
| 2026-05-07 09:39 | 56.69881 | 37.04334 | 14890 ft | 369 kts | 101° |
| 2026-05-07 09:39 | 56.69513 | 37.08942 | 14895 ft | 367 kts | 101° |
| 2026-05-07 09:39 | 56.69135 | 37.13477 | 14894 ft | 367 kts | 102° |
| 2026-05-07 09:39 | 56.68743 | 37.18069 | 14895 ft | 367 kts | 102° |
| 2026-05-07 09:40 | 56.68347 | 37.22653 | 14895 ft | 367 kts | 102° |
| 2026-05-07 09:40 | 56.67946 | 37.27244 | 14876 ft | 366 kts | 102° |
| 2026-05-07 09:40 | 56.67544 | 37.31786 | 14473 ft | 363 kts | 103° |
| 2026-05-07 09:40 | 56.66825 | 37.36120 | 13943 ft | 354 kts | 121° |
| 2026-05-07 09:41 | 56.65364 | 37.39558 | 13423 ft | 338 kts | 146° |
| 2026-05-07 09:41 | 56.63412 | 37.41744 | 12890 ft | 324 kts | 160° |
| 2026-05-07 09:41 | 56.61378 | 37.43418 | 12399 ft | 319 kts | 163° |
| 2026-05-07 09:41 | 56.59343 | 37.45001 | 11996 ft | 317 kts | 163° |
| 2026-05-07 09:42 | 56.57320 | 37.46573 | 11715 ft | 317 kts | 163° |
| 2026-05-07 09:42 | 56.55302 | 37.48152 | 11463 ft | 316 kts | 163° |
| 2026-05-07 09:42 | 56.53262 | 37.49535 | 11205 ft | 308 kts | 173° |
| 2026-05-07 09:42 | 56.51193 | 37.49590 | 10956 ft | 292 kts | 198° |
| 2026-05-07 09:43 | 56.49390 | 37.48124 | 10708 ft | 279 kts | 215° |
| 2026-05-07 09:43 | 56.47812 | 37.46193 | 10458 ft | 268 kts | 218° |
| 2026-05-07 09:43 | 56.46320 | 37.44256 | 10100 ft | 263 kts | 219° |
| 2026-05-07 09:43 | 56.44859 | 37.42259 | 9465 ft | 265 kts | 224° |
| 2026-05-07 09:44 | 56.43722 | 37.39688 | 9007 ft | 259 kts | 243° |
| 2026-05-07 09:44 | 56.43248 | 37.36648 | 8876 ft | 245 kts | 262° |
| 2026-05-07 09:44 | 56.43241 | 37.33703 | 8874 ft | 226 kts | 268° |
| 2026-05-07 09:44 | 56.43322 | 37.30899 | 8883 ft | 222 kts | 269° |
| 2026-05-07 09:45 | 56.43409 | 37.28129 | 8890 ft | 221 kts | 269° |
| 2026-05-07 09:45 | 56.43493 | 37.25360 | 8825 ft | 220 kts | 268° |
| 2026-05-07 09:45 | 56.43477 | 37.22633 | 8534 ft | 215 kts | 259° |
| 2026-05-07 09:45 | 56.43089 | 37.20042 | 8176 ft | 214 kts | 247° |
| 2026-05-07 09:46 | 56.42476 | 37.17593 | 7842 ft | 214 kts | 244° |
| 2026-05-07 09:46 | 56.41806 | 37.15202 | 7514 ft | 213 kts | 240° |
| 2026-05-07 09:46 | 56.40916 | 37.13079 | 7163 ft | 214 kts | 226° |
| 2026-05-07 09:46 | 56.39689 | 37.11561 | 6920 ft | 217 kts | 208° |
| 2026-05-07 09:47 | 56.38203 | 37.10888 | 6882 ft | 226 kts | 190° |
| 2026-05-07 09:47 | 56.36611 | 37.11234 | 6882 ft | 238 kts | 169° |
| 2026-05-07 09:47 | 56.35132 | 37.12692 | 6879 ft | 249 kts | 150° |
| 2026-05-07 09:47 | 56.33815 | 37.14759 | 6880 ft | 253 kts | 144° |
| 2026-05-07 09:48 | 56.32534 | 37.16940 | 6879 ft | 253 kts | 144° |
| 2026-05-07 09:48 | 56.31255 | 37.19120 | 6877 ft | 253 kts | 144° |
| 2026-05-07 09:48 | 56.29988 | 37.21259 | 6748 ft | 253 kts | 144° |
| 2026-05-07 09:48 | 56.28704 | 37.23409 | 6415 ft | 252 kts | 145° |
| 2026-05-07 09:49 | 56.27418 | 37.25546 | 6101 ft | 251 kts | 144° |
| 2026-05-07 09:49 | 56.26119 | 37.27675 | 5826 ft | 248 kts | 147° |
| 2026-05-07 09:49 | 56.24728 | 37.29277 | 5619 ft | 233 kts | 163° |
| 2026-05-07 09:49 | 56.23220 | 37.30222 | 5519 ft | 221 kts | 170° |
| 2026-05-07 09:50 | 56.21776 | 37.30960 | 5350 ft | 212 kts | 172° |
| 2026-05-07 09:50 | 56.20376 | 37.31643 | 5099 ft | 210 kts | 172° |
| 2026-05-07 09:50 | 56.18964 | 37.32327 | 4854 ft | 210 kts | 172° |
| 2026-05-07 09:50 | 56.17531 | 37.33028 | 4584 ft | 211 kts | 171° |
| 2026-05-07 09:51 | 56.16177 | 37.34016 | 4307 ft | 217 kts | 155° |
| 2026-05-07 09:51 | 56.14990 | 37.35730 | 4103 ft | 221 kts | 140° |
| 2026-05-07 09:51 | 56.13935 | 37.37745 | 3864 ft | 222 kts | 136° |
| 2026-05-07 09:51 | 56.12909 | 37.39802 | 3687 ft | 221 kts | 137° |
| 2026-05-07 09:52 | 56.11874 | 37.41878 | 3480 ft | 220 kts | 136° |
| 2026-05-07 09:52 | 56.10875 | 37.43878 | 3414 ft | 216 kts | 138° |
| 2026-05-07 09:52 | 56.09863 | 37.45883 | 3290 ft | 214 kts | 138° |
| 2026-05-07 09:52 | 56.08875 | 37.47843 | 3225 ft | 215 kts | 136° |
| 2026-05-07 09:53 | 56.07868 | 37.49831 | 3101 ft | 216 kts | 137° |
| 2026-05-07 09:53 | 56.06879 | 37.51789 | 3008 ft | 205 kts | 138° |
| 2026-05-07 09:53 | 56.05949 | 37.53638 | 2823 ft | 195 kts | 139° |
| 2026-05-07 09:53 | 56.05044 | 37.55413 | 2655 ft | 192 kts | 137° |
| 2026-05-07 09:54 | 56.04153 | 37.57181 | 2452 ft | 190 kts | 140° |
| 2026-05-07 09:54 | 56.03277 | 37.58885 | 2382 ft | 183 kts | 141° |
| 2026-05-07 09:54 | 56.02292 | 37.60235 | 2382 ft | 175 kts | 163° |
| 2026-05-07 09:54 | 56.01147 | 37.60523 | 2378 ft | 164 kts | 194° |
| 2026-05-07 09:55 | 56.00253 | 37.59347 | 2433 ft | 165 kts | 233° |
| 2026-05-07 09:55 | 55.99698 | 37.57614 | 2444 ft | 159 kts | 241° |
| 2026-05-07 09:55 | 55.99224 | 37.55866 | 2178 ft | 154 kts | 249° |
| 2026-05-07 09:55 | 55.98945 | 37.54070 | 1877 ft | 146 kts | 253° |
| 2026-05-07 09:56 | 55.98726 | 37.52356 | 1641 ft | 140 kts | 255° |
| 2026-05-07 09:56 | 55.98513 | 37.50710 | 1437 ft | 132 kts | 252° |
| 2026-05-07 09:56 | 55.98263 | 37.49101 | 1197 ft | 137 kts | 252° |
| 2026-05-07 09:56 | 55.98017 | 37.47387 | 1043 ft | 143 kts | 251° |
| 2026-05-07 09:57 | 55.97755 | 37.45661 | 854 ft | 148 kts | 252° |
| 2026-05-07 09:57 | 55.97500 | 37.43881 | 660 ft | 145 kts | 252° |
| 2026-05-07 09:57 | 55.97248 | 37.42313 | 639 ft | 110 kts | 256° |
| 2026-05-07 09:57 | 55.97119 | 37.41381 | 633 ft | 50 kts | 257° |
| 2026-05-07 09:58 | 55.97049 | 37.41107 | 638 ft | 18 kts | 228° |
| 2026-05-07 09:58 | 55.96954 | 37.40924 | 635 ft | 21 kts | 226° |
| 2026-05-07 09:58 | 55.96841 | 37.40777 | 635 ft | 6 kts | 185° |
| 2026-05-07 09:58 | 55.96807 | 37.40816 | 633 ft | 10 kts | 142° |
| 2026-05-07 09:59 | 55.96756 | 37.40827 | 639 ft | 5 kts | 208° |
| 2026-05-07 09:59 | 55.96740 | 37.40789 | 635 ft | 7 kts | 239° |
| 2026-05-07 09:59 | 55.96719 | 37.40665 | 639 ft | 14 kts | 257° |
| 2026-05-07 09:59 | 55.96688 | 37.40460 | 634 ft | 19 kts | 255° |
| 2026-05-07 10:00 | 55.96647 | 37.40208 | 638 ft | 22 kts | 238° |
| 2026-05-07 10:00 | 55.96568 | 37.40198 | 636 ft | 6 kts | 124° |
| 2026-05-07 10:00 | 55.96574 | 37.40270 | 633 ft | 10 kts | 75° |
| 2026-05-07 10:00 | 55.96562 | 37.40391 | 636 ft | 3 kts | 105° |